Terminal Aerodrome Forecast
Issued by NWS Chicago, IL

Home | Current Version | Previous Version | Graphics & Text | Print | Product List | Glossary On
Versions: 1 2 3 4 5 6 7 8 9 10 11 12 13 14 15 16 17 18 19 20 21 22 23
902
FTUS43 KLOT 171503 AAA
TAFRFD
TAF AMD
KRFD 171503Z 1715/1812 32012G20KT P6SM BKN035
     FM172100 34011KT P6SM SCT040
     FM180000 01008KT P6SM SCT040
     FM180800 09012KT P6SM BKN040=

USA.gov is the U.S. government's official web portal to all federal, state and local government web resources and services.